Beach City, Ohio
Current Conditions -  °F | °C
As of 9:53 PM on Friday 19 Dec 2014 (Local Time) from KPHD Reporting Station
Overcast Overcast  
Wind Chill: 31°   Ceiling: 2300
Heat Index: 31°   Visibility: 10mi
Dew Point: 22°   Wind: 3mph
Humidity: 69%   Direction: 30°NNE
Pressure: 30.28"   Gusts: NA
Location:  40.65°N, 81.58°W
Report Text: KPHD 200253Z AUTO 03003KT 10SM OVC023 M01/M06 A3028 RMK AO2 SLP265 T10061056 58004
Loading
Personal Weather Stations






























Interactive Weather Map New forecast layout! Learn more

10-Day Weather Forecast

Advertisements
Track Severe Weather on mobile